Login to view Products
 
Friday, March 22, 2019 (10:04 UTC)
Ras Al Khaimah International Airport
ICAO: OMRK
IATA: RKT
  • METAR OMRK 221000Z 36009KT 9999 FEW040 26/14 Q1015 A2999=
  • TAF OMRK 220454Z 2206/2312 20007KT 8000 NSC PROB30 TEMPO 2206/2214 VRB15G25KT 3000 SHRA BLDU FEW040TCU BECMG 2208/2210 35014KT BECMG 2214/2216 10008KT PROB30 TEMPO 2220/2310 VRB18G30KT 3000 TSRA BLDU FEW040CB BECMG 2309/2311 36012KT=
D:\Input Parser\Destinations\Final\04\OMRKL06120454688223293.txt
1